Elsenborn, Belgium
Current Conditions -  °F | °C
As of 6:25 AM on Saturday 25 Oct 2014 (Local Time) from EBLB Reporting Station
Overcast Overcast  
Wind Chill: 46°   Ceiling: 100
Heat Index: 46°   Visibility: 1mi
Dew Point: 45°   Wind: 3mph
Humidity: 93%   Direction: 210°SSW
Pressure: 30.06"   Gusts: NA
Location:  50.46°N, 6.22°E
Report Text: EBLB 250425Z AUTO 21003KT 1700 BKN001/// OVC003/// 08/07 Q1018 RED
Loading
Personal Weather Stations






























Interactive Weather Map New forecast layout! Learn more

10-Day Weather Forecast

Advertisements
Track Severe Weather on mobile